createdAt,value
2017-07-18T20:26:33.303Z,53.90
2017-07-18T20:29:00.401Z,54.10
2017-07-18T20:31:27.350Z,54.10
2017-07-18T20:33:54.558Z,54.60
2017-07-18T20:36:20.914Z,55.00
2017-07-18T20:38:47.178Z,54.00
2017-07-18T20:41:14.269Z,54.50
2017-07-18T20:43:40.755Z,55.10
2017-07-18T20:46:08.163Z,54.50
2017-07-18T20:48:34.467Z,54.80
2017-07-18T20:51:00.742Z,54.70
2017-07-18T20:53:27.182Z,54.80
2017-07-18T20:55:55.024Z,54.30
2017-07-18T20:58:22.338Z,55.20
2017-07-18T21:00:49.324Z,55.10
2017-07-18T21:03:16.013Z,55.10
2017-07-18T21:05:42.286Z,55.10
2017-07-18T21:08:10.272Z,55.00
2017-07-18T21:10:37.355Z,55.50
2017-07-18T21:13:03.595Z,55.40
2017-07-18T21:15:31.084Z,55.10
2017-07-18T21:17:58.183Z,55.40
2017-07-18T21:20:24.424Z,55.30
2017-07-18T21:22:50.734Z,55.70
2017-07-18T21:25:17.960Z,55.20
2017-07-18T21:27:44.217Z,56.00
2017-07-18T21:30:11.368Z,55.70
2017-07-18T21:32:38.313Z,55.50
2017-07-18T21:35:06.060Z,55.80
2017-07-18T21:37:32.344Z,55.50
2017-07-18T21:39:58.626Z,55.70
2017-07-18T21:42:26.454Z,54.90
2017-07-18T21:44:52.788Z,55.60
2017-07-18T21:47:20.042Z,55.70
2017-07-18T21:49:46.843Z,55.30
2017-07-18T21:52:14.103Z,55.60
2017-07-18T21:54:41.754Z,55.70
2017-07-18T21:57:08.765Z,56.00
2017-07-18T21:59:35.015Z,56.60
2017-07-18T22:02:01.283Z,56.10
2017-07-18T22:04:28.766Z,55.90
2017-07-18T22:06:55.407Z,56.60
2017-07-18T22:09:22.476Z,56.50
2017-07-18T22:11:48.727Z,56.50
2017-07-18T22:14:15.750Z,56.10
2017-07-18T22:16:42.027Z,56.10
2017-07-18T22:19:08.323Z,56.70
2017-07-18T22:21:35.613Z,56.70
2017-07-18T22:24:01.886Z,57.30
2017-07-18T22:26:28.587Z,57.20
2017-07-18T22:28:55.663Z,57.80
2017-07-18T22:31:22.559Z,57.80
2017-07-18T22:33:48.845Z,57.50
2017-07-18T22:36:15.103Z,57.60
2017-07-18T22:38:41.398Z,58.00
2017-07-18T22:41:08.123Z,58.10
2017-07-18T22:43:34.385Z,58.50
2017-07-18T22:46:00.648Z,58.50
2017-07-18T22:48:26.943Z,58.60
2017-07-18T22:50:53.828Z,58.60
2017-07-18T22:53:20.919Z,57.80
2017-07-18T22:55:47.816Z,57.70
2017-07-18T22:58:14.092Z,57.40
2017-07-18T23:00:40.344Z,57.10
2017-07-18T23:03:06.661Z,57.10
2017-07-18T23:05:32.940Z,57.00
2017-07-18T23:07:59.200Z,57.30
2017-07-18T23:10:26.165Z,57.40
2017-07-18T23:12:52.722Z,57.40
2017-07-18T23:15:19.756Z,57.20
2017-07-18T23:17:47.341Z,57.20
2017-07-18T23:20:14.354Z,57.20
2017-07-18T23:22:40.597Z,57.20
2017-07-18T23:25:07.425Z,57.30
2017-07-18T23:27:33.661Z,57.70
2017-07-18T23:29:59.930Z,57.60
2017-07-18T23:32:26.184Z,57.60
2017-07-18T23:34:52.442Z,58.00
2017-07-18T23:37:19.684Z,58.40
2017-07-18T23:39:45.938Z,59.70
2017-07-18T23:42:12.218Z,59.80
2017-07-18T23:44:38.497Z,59.40
2017-07-18T23:47:05.393Z,58.70
2017-07-18T23:49:32.657Z,58.50
2017-07-18T23:51:58.938Z,58.60
2017-07-18T23:54:25.602Z,58.90
2017-07-18T23:56:52.961Z,59.70
2017-07-18T23:59:19.533Z,59.00
